createdAt,value
2023-04-09T00:02:11.813Z,32.45
2023-04-09T00:04:50.419Z,32.84
2023-04-09T00:07:20.531Z,32.62
2023-04-09T00:09:50.958Z,32.56
2023-04-09T00:12:18.364Z,32.31
2023-04-09T00:14:53.180Z,32.55
2023-04-09T00:17:20.545Z,32.21
2023-04-09T00:19:53.672Z,32.43
2023-04-09T00:22:23.512Z,32.49
2023-04-09T00:24:54.400Z,32.50
2023-04-09T00:27:26.790Z,32.79
2023-04-09T00:29:57.493Z,32.86
2023-04-09T00:32:29.693Z,32.78
2023-04-09T00:34:59.174Z,32.94
2023-04-09T00:37:26.492Z,33.16
2023-04-09T00:39:56.069Z,33.21
2023-04-09T00:42:26.076Z,33.20
2023-04-09T00:44:56.484Z,33.31
2023-04-09T00:47:34.120Z,33.23
2023-04-09T00:50:10.057Z,33.40
2023-04-09T00:52:40.369Z,33.29
2023-04-09T00:55:19.062Z,33.43
2023-04-09T00:57:47.146Z,33.44
2023-04-09T01:00:18.824Z,33.29
2023-04-09T01:02:54.211Z,33.38
2023-04-09T01:05:25.608Z,33.31
2023-04-09T01:08:19.742Z,33.50
2023-04-09T01:10:59.830Z,33.37
2023-04-09T01:14:01.935Z,33.55
2023-04-09T01:16:32.911Z,33.58
2023-04-09T01:19:12.477Z,33.58
2023-04-09T01:21:58.535Z,33.52
2023-04-09T01:28:19.084Z,33.88
2023-04-09T01:30:55.559Z,33.67
2023-04-09T01:33:30.068Z,33.99
2023-04-09T01:36:00.638Z,33.81
2023-04-09T01:38:35.510Z,33.92
2023-04-09T01:41:18.826Z,33.92
2023-04-09T01:43:46.837Z,33.97
2023-04-09T01:46:28.154Z,34.28
2023-04-09T01:48:55.879Z,33.86
2023-04-09T01:51:26.673Z,34.09
2023-04-09T01:53:57.591Z,34.07
2023-04-09T01:56:26.635Z,34.12
2023-04-09T01:58:54.286Z,34.03
2023-04-09T02:01:36.116Z,34.02
2023-04-09T02:04:15.776Z,34.22
2023-04-09T02:06:47.692Z,34.10
2023-04-09T02:09:22.346Z,34.39
2023-04-09T02:11:54.434Z,34.24
2023-04-09T02:14:31.613Z,34.43
2023-04-09T02:17:00.280Z,34.35
2023-04-09T02:19:50.117Z,34.61
2023-04-09T02:22:17.921Z,34.68
2023-04-09T02:24:47.765Z,34.80
2023-04-09T02:27:17.304Z,34.50
2023-04-09T02:29:49.984Z,34.77
2023-04-09T02:32:18.481Z,34.66
2023-04-09T02:34:46.374Z,34.81
2023-04-09T02:37:13.647Z,34.49
2023-04-09T02:39:41.268Z,34.78
2023-04-09T02:42:11.734Z,34.60
2023-04-09T02:44:44.820Z,34.58
2023-04-09T02:47:15.174Z,34.46
2023-04-09T02:49:47.007Z,34.73
2023-04-09T02:52:20.416Z,34.70
2023-04-09T02:54:49.168Z,34.95
2023-04-09T02:57:22.318Z,34.88
2023-04-09T03:02:58.853Z,34.92
2023-04-09T03:05:26.532Z,35.00
2023-04-09T03:08:06.765Z,34.89
2023-04-09T03:13:17.772Z,34.63
2023-04-09T03:15:52.301Z,34.59
2023-04-09T03:18:22.013Z,34.48
2023-04-09T03:20:54.929Z,34.44
2023-04-09T03:23:23.564Z,34.88
2023-04-09T03:26:02.695Z,34.56
2023-04-09T03:28:39.628Z,34.35
2023-04-09T03:31:07.073Z,34.48
2023-04-09T03:33:51.049Z,34.72
2023-04-09T03:36:18.676Z,35.22
2023-04-09T03:39:12.922Z,35.11
2023-04-09T03:41:46.916Z,34.56
2023-04-09T03:44:18.951Z,34.92
2023-04-09T03:47:00.202Z,34.83
2023-04-09T03:49:36.251Z,34.85
2023-04-09T03:52:13.998Z,34.77
2023-04-09T03:54:48.029Z,34.75
2023-04-09T03:57:30.063Z,35.23
2023-04-09T04:00:07.648Z,35.04
2023-04-09T04:02:51.745Z,34.97
2023-04-09T04:05:34.141Z,35.11
2023-04-09T04:08:07.692Z,34.81
2023-04-09T04:10:35.511Z,34.67
2023-04-09T04:13:07.204Z,35.14
2023-04-09T04:15:44.026Z,35.01
2023-04-09T04:18:24.900Z,35.33
2023-04-09T04:20:54.507Z,35.01
2023-04-09T04:23:30.578Z,34.73
2023-04-09T04:26:14.951Z,34.96
2023-04-09T04:28:45.814Z,34.94
2023-04-09T04:31:31.207Z,35.15
2023-04-09T04:34:09.123Z,35.03
2023-04-09T04:36:41.782Z,35.09
2023-04-09T04:39:15.048Z,35.55
2023-04-09T04:42:06.203Z,35.41
2023-04-09T04:44:33.720Z,35.25
2023-04-09T04:47:13.194Z,35.32
2023-04-09T04:49:43.782Z,35.28
2023-04-09T04:52:14.701Z,35.32
2023-04-09T04:54:50.791Z,35.36
2023-04-09T04:57:33.950Z,35.44
2023-04-09T05:00:08.833Z,35.21
2023-04-09T05:02:38.365Z,35.31
2023-04-09T05:05:17.813Z,35.34
2023-04-09T05:07:54.052Z,35.55
2023-04-09T05:10:22.507Z,35.55
2023-04-09T05:12:59.829Z,35.57
2023-04-09T05:15:44.399Z,35.65
2023-04-09T05:18:16.509Z,35.66
2023-04-09T05:20:53.197Z,35.94
2023-04-09T05:23:30.888Z,35.60
2023-04-09T05:26:01.971Z,35.72
2023-04-09T05:28:56.569Z,35.65
2023-04-09T05:31:27.428Z,35.60
2023-04-09T05:34:00.450Z,35.48
2023-04-09T05:36:43.778Z,35.63
2023-04-09T05:39:12.081Z,35.63
2023-04-09T05:41:39.484Z,35.40
2023-04-09T05:44:25.136Z,35.45
2023-04-09T05:46:58.518Z,35.75
2023-04-09T05:49:32.098Z,35.70
2023-04-09T05:52:08.165Z,35.63
2023-04-09T05:54:41.239Z,35.54
2023-04-09T05:57:12.872Z,35.42
2023-04-09T05:59:49.975Z,35.81
2023-04-09T06:02:17.825Z,36.33
2023-04-09T06:07:49.186Z,35.95
2023-04-09T06:10:45.999Z,35.83
2023-04-09T06:13:17.381Z,36.00
2023-04-09T06:15:54.056Z,35.90
2023-04-09T06:18:30.385Z,35.92
2023-04-09T06:21:20.066Z,35.65
2023-04-09T06:23:54.207Z,35.87
2023-04-09T06:26:25.481Z,35.83
2023-04-09T06:28:55.458Z,35.61
2023-04-09T06:31:25.460Z,35.83
2023-04-09T06:33:55.944Z,35.76
2023-04-09T06:36:23.849Z,35.54
2023-04-09T06:38:58.212Z,35.55
2023-04-09T06:41:29.166Z,35.62
2023-04-09T06:44:01.903Z,35.78
2023-04-09T06:46:31.844Z,35.40
2023-04-09T06:49:13.851Z,35.09
2023-04-09T06:51:43.809Z,35.13
2023-04-09T06:54:14.901Z,35.23
2023-04-09T06:56:45.099Z,35.37
2023-04-09T06:59:19.222Z,34.71
2023-04-09T07:02:01.272Z,34.67
2023-04-09T07:04:39.348Z,34.91
2023-04-09T07:07:16.577Z,34.86
2023-04-09T07:09:44.679Z,34.65
2023-04-09T07:12:16.448Z,34.89
2023-04-09T07:14:47.939Z,34.44
2023-04-09T07:17:19.532Z,34.36
2023-04-09T07:19:50.121Z,34.32
2023-04-09T07:22:44.549Z,33.88
2023-04-09T07:25:39.406Z,33.97
2023-04-09T07:28:42.239Z,33.68
2023-04-09T07:31:15.304Z,33.29
2023-04-09T07:33:54.927Z,33.53
2023-04-09T07:36:36.401Z,33.30
2023-04-09T07:39:04.302Z,33.29
2023-04-09T07:41:31.915Z,33.13
2023-04-09T07:44:06.427Z,33.02
2023-04-09T07:46:37.610Z,33.05
2023-04-09T07:49:08.324Z,32.78
2023-04-09T07:51:38.721Z,32.57
2023-04-09T07:54:06.102Z,32.88
2023-04-09T07:56:33.227Z,32.46
2023-04-09T07:59:00.310Z,32.12
2023-04-09T08:01:27.664Z,32.39
2023-04-09T08:03:55.114Z,32.47
2023-04-09T08:06:22.463Z,32.12
2023-04-09T08:08:52.955Z,32.43
2023-04-09T08:11:26.179Z,32.20
2023-04-09T08:13:57.584Z,31.67
2023-04-09T08:16:27.600Z,31.37
2023-04-09T08:19:08.098Z,30.67
2023-04-09T08:21:46.356Z,30.90
2023-04-09T08:24:24.556Z,30.63
2023-04-09T08:27:08.047Z,30.40
2023-04-09T08:29:45.973Z,30.65
2023-04-09T08:32:25.056Z,29.89
2023-04-09T08:34:58.411Z,30.18
2023-04-09T08:37:49.510Z,30.51
2023-04-09T08:40:33.559Z,30.92
2023-04-09T08:43:37.288Z,30.57
2023-04-09T08:46:48.362Z,30.62
2023-04-09T08:49:40.627Z,29.98
2023-04-09T08:52:17.135Z,29.06
2023-04-09T08:54:53.217Z,28.19
2023-04-09T08:57:33.556Z,28.39
2023-04-09T09:00:16.678Z,27.93
2023-04-09T09:03:10.869Z,27.54
2023-04-09T09:05:59.197Z,27.16
2023-04-09T09:09:18.336Z,25.56
2023-04-09T09:15:01.474Z,25.44
2023-04-09T09:17:35.482Z,24.82
2023-04-09T09:20:42.141Z,22.98
2023-04-09T09:23:15.977Z,22.12
2023-04-09T09:26:12.898Z,22.42
2023-04-09T09:28:53.549Z,22.16
2023-04-09T09:32:02.156Z,22.35
2023-04-09T09:34:58.631Z,22.38
2023-04-09T09:38:12.205Z,22.74
2023-04-09T09:40:49.152Z,22.90
2023-04-09T09:43:43.470Z,22.56
2023-04-09T09:46:20.940Z,21.31
2023-04-09T09:48:51.472Z,21.39
2023-04-09T09:51:43.033Z,20.58
2023-04-09T09:54:45.070Z,19.75
2023-04-09T09:57:38.413Z,20.55
2023-04-09T10:00:56.828Z,20.66
2023-04-09T10:03:44.469Z,20.52
2023-04-09T10:06:16.735Z,20.86
2023-04-09T10:09:03.431Z,22.43
2023-04-09T10:11:48.237Z,22.70
2023-04-09T10:14:44.824Z,23.68
2023-04-09T10:17:40.812Z,23.31
2023-04-09T10:20:39.312Z,23.44
2023-04-09T10:23:23.900Z,23.35
2023-04-09T10:26:09.084Z,23.67
2023-04-09T10:28:48.930Z,23.95
2023-04-09T10:31:28.124Z,23.20
2023-04-09T10:34:10.995Z,22.19
2023-04-09T10:36:58.806Z,21.38
2023-04-09T10:39:48.097Z,22.02
2023-04-09T10:42:36.911Z,24.46
2023-04-09T10:45:22.393Z,23.11
2023-04-09T10:48:03.276Z,22.63
2023-04-09T10:50:59.021Z,22.72
2023-04-09T10:53:37.434Z,21.29
2023-04-09T10:56:23.528Z,20.48
2023-04-09T10:58:52.659Z,21.04
2023-04-09T11:01:36.423Z,21.67
2023-04-09T11:04:22.769Z,22.73
2023-04-09T11:07:03.442Z,23.98
2023-04-09T11:09:53.786Z,23.33
2023-04-09T11:12:30.346Z,23.19
2023-04-09T11:15:02.990Z,23.17
2023-04-09T11:17:47.745Z,22.75
2023-04-09T11:20:33.557Z,22.54
2023-04-09T11:23:01.551Z,21.55
2023-04-09T11:25:35.888Z,20.72
2023-04-09T11:28:14.503Z,20.85
2023-04-09T11:31:16.680Z,20.75
2023-04-09T11:33:51.722Z,22.24
2023-04-09T11:36:24.155Z,22.68
2023-04-09T11:39:14.976Z,24.00
2023-04-09T11:41:55.735Z,23.74
2023-04-09T11:44:37.934Z,25.37
2023-04-09T11:47:05.860Z,23.58
2023-04-09T11:50:12.020Z,21.40
2023-04-09T11:53:01.591Z,20.15
2023-04-09T11:55:37.583Z,20.33
2023-04-09T11:58:05.164Z,20.12
2023-04-09T12:00:35.915Z,20.39
2023-04-09T12:03:18.917Z,21.37
2023-04-09T12:06:14.138Z,20.76
2023-04-09T12:09:05.562Z,18.78
2023-04-09T12:11:58.347Z,20.28
2023-04-09T12:14:45.714Z,20.78
2023-04-09T12:17:24.542Z,21.47
2023-04-09T12:19:56.932Z,21.98
2023-04-09T12:22:28.433Z,21.04
2023-04-09T12:25:02.199Z,22.59
2023-04-09T12:27:39.953Z,22.36
2023-04-09T12:30:22.431Z,22.68
2023-04-09T12:32:55.679Z,23.04
2023-04-09T12:35:43.432Z,23.98
2023-04-09T12:38:22.537Z,22.22
2023-04-09T12:40:52.413Z,21.64
2023-04-09T12:43:36.049Z,22.73
2023-04-09T12:46:22.709Z,23.51
2023-04-09T12:48:59.955Z,22.34
2023-04-09T12:51:35.494Z,23.58
2023-04-09T12:54:15.355Z,22.88
2023-04-09T12:56:53.177Z,24.26
2023-04-09T12:59:25.668Z,24.17
2023-04-09T13:02:00.301Z,23.72
2023-04-09T13:04:42.193Z,22.78
2023-04-09T13:07:28.730Z,22.17
2023-04-09T13:10:08.040Z,22.81
2023-04-09T13:12:43.456Z,22.13
2023-04-09T13:15:20.065Z,22.35
2023-04-09T13:17:55.295Z,23.61
2023-04-09T13:20:27.988Z,23.72
2023-04-09T13:23:00.176Z,23.89
2023-04-09T13:25:35.569Z,24.25
2023-04-09T13:30:56.601Z,25.14
2023-04-09T13:33:37.005Z,25.09
2023-04-09T13:36:10.212Z,25.05
2023-04-09T13:38:49.610Z,25.08
2023-04-09T13:41:32.840Z,24.50
2023-04-09T13:44:08.100Z,25.20
2023-04-09T13:46:41.290Z,24.94
2023-04-09T13:49:14.938Z,25.98
2023-04-09T13:51:45.291Z,25.51
2023-04-09T13:54:39.298Z,25.58
2023-04-09T13:57:17.208Z,25.98
2023-04-09T14:00:11.857Z,25.70
2023-04-09T14:02:45.025Z,25.92
2023-04-09T14:05:22.442Z,26.80
2023-04-09T14:07:53.074Z,26.76
2023-04-09T14:10:33.404Z,26.92
2023-04-09T14:13:12.398Z,26.97
2023-04-09T14:15:40.209Z,26.95
2023-04-09T14:18:12.602Z,27.11
2023-04-09T14:20:43.587Z,28.36
2023-04-09T14:23:15.302Z,28.65
2023-04-09T14:25:42.710Z,28.82
2023-04-09T14:28:15.585Z,28.92
2023-04-09T14:30:49.114Z,29.36
2023-04-09T14:33:16.813Z,28.69
2023-04-09T14:35:51.548Z,28.49
2023-04-09T14:38:24.744Z,28.16
2023-04-09T14:40:54.766Z,28.76
2023-04-09T14:43:35.840Z,29.46
2023-04-09T14:46:09.223Z,29.07
2023-04-09T14:48:54.284Z,29.08
2023-04-09T14:51:29.942Z,29.08
2023-04-09T14:53:58.321Z,30.86
2023-04-09T14:56:33.096Z,31.11
2023-04-09T14:59:00.820Z,31.08
2023-04-09T15:01:30.088Z,31.08
2023-04-09T15:04:08.824Z,31.87
2023-04-09T15:06:41.330Z,32.67
2023-04-09T15:09:11.565Z,31.93
2023-04-09T15:11:49.973Z,32.26
2023-04-09T15:14:39.231Z,33.39
2023-04-09T15:17:09.672Z,33.39
2023-04-09T15:19:40.101Z,33.35
2023-04-09T15:22:12.974Z,34.26
2023-04-09T15:24:50.554Z,33.50
2023-04-09T15:27:40.683Z,34.54
2023-04-09T15:30:19.268Z,34.23
2023-04-09T15:32:50.978Z,34.46
2023-04-09T15:35:28.424Z,35.40
2023-04-09T15:38:03.758Z,34.80
2023-04-09T15:40:37.601Z,35.14
2023-04-09T15:43:17.599Z,35.36
2023-04-09T15:45:48.823Z,35.47
2023-04-09T15:48:27.897Z,35.35
2023-04-09T15:51:04.859Z,35.06
2023-04-09T15:53:38.388Z,35.01
2023-04-09T15:56:11.039Z,35.00
2023-04-09T15:58:43.048Z,34.98
2023-04-09T16:01:13.758Z,35.28
2023-04-09T16:03:47.085Z,34.31
2023-04-09T16:06:20.130Z,34.14
2023-04-09T16:09:05.723Z,35.11
2023-04-09T16:11:38.629Z,34.89
2023-04-09T16:14:09.454Z,35.07
2023-04-09T16:16:52.882Z,34.67
2023-04-09T16:19:24.811Z,35.00
2023-04-09T16:21:55.805Z,35.02
2023-04-09T16:24:31.099Z,35.95
2023-04-09T16:26:59.119Z,35.65
2023-04-09T16:29:35.140Z,36.41
2023-04-09T16:32:10.854Z,37.12
2023-04-09T16:34:47.708Z,36.84
2023-04-09T16:37:20.656Z,36.58
2023-04-09T16:39:53.124Z,37.02
2023-04-09T16:42:23.070Z,36.39
2023-04-09T16:44:55.155Z,36.26
2023-04-09T16:47:32.240Z,37.39
2023-04-09T16:50:22.228Z,38.42
2023-04-09T16:53:04.861Z,38.08
2023-04-09T16:55:48.688Z,37.71
2023-04-09T16:58:34.256Z,36.33
2023-04-09T17:01:04.419Z,36.29
2023-04-09T17:03:52.863Z,37.44
2023-04-09T17:06:31.105Z,37.72
2023-04-09T17:09:19.538Z,38.10
2023-04-09T17:11:59.293Z,38.75
2023-04-09T17:14:39.242Z,38.53
2023-04-09T17:17:19.507Z,39.53
2023-04-09T17:20:03.416Z,38.90
2023-04-09T17:23:03.507Z,38.44
2023-04-09T17:25:44.497Z,39.07
2023-04-09T17:28:18.706Z,38.19
2023-04-09T17:30:56.802Z,38.83
2023-04-09T17:33:32.519Z,39.34
2023-04-09T17:36:04.290Z,39.71
2023-04-09T17:38:46.277Z,40.46
2023-04-09T17:41:24.120Z,40.38
2023-04-09T17:44:12.258Z,41.30
2023-04-09T17:47:00.454Z,41.04
2023-04-09T17:49:37.184Z,41.54
2023-04-09T17:52:36.777Z,41.74
2023-04-09T17:55:15.966Z,42.09
2023-04-09T17:57:52.754Z,41.89
2023-04-09T18:00:31.332Z,41.33
2023-04-09T18:03:03.073Z,41.70
2023-04-09T18:05:50.267Z,41.94
2023-04-09T18:08:23.769Z,41.92
2023-04-09T18:11:12.299Z,41.57
2023-04-09T18:13:49.989Z,41.56
2023-04-09T18:16:31.498Z,42.45
2023-04-09T18:19:02.960Z,42.31
2023-04-09T18:21:36.872Z,42.35
2023-04-09T18:24:07.820Z,42.16
2023-04-09T18:26:46.038Z,41.84
2023-04-09T18:29:17.614Z,42.94
2023-04-09T18:31:46.869Z,42.92
2023-04-09T18:34:33.251Z,43.35
2023-04-09T18:37:14.441Z,43.99
2023-04-09T18:40:03.915Z,43.44
2023-04-09T18:42:54.132Z,43.30
2023-04-09T18:45:31.707Z,43.82
2023-04-09T18:48:10.627Z,43.99
2023-04-09T18:50:42.105Z,45.85
2023-04-09T18:53:10.655Z,45.99
2023-04-09T18:55:41.027Z,46.54
2023-04-09T18:58:33.440Z,45.80
2023-04-09T19:01:33.125Z,46.47
2023-04-09T19:04:14.412Z,47.23
2023-04-09T19:07:02.250Z,47.01
2023-04-09T19:10:00.137Z,47.89
2023-04-09T19:12:52.738Z,48.95
2023-04-09T19:15:34.785Z,49.14
2023-04-09T19:18:06.593Z,48.27
2023-04-09T19:20:40.227Z,47.61
2023-04-09T19:23:12.784Z,47.87
2023-04-09T19:25:55.826Z,49.50
2023-04-09T19:28:28.331Z,49.34
2023-04-09T19:31:03.248Z,48.57
2023-04-09T19:33:42.382Z,50.47
2023-04-09T19:36:19.308Z,49.30
2023-04-09T19:38:52.363Z,49.33
2023-04-09T19:41:31.582Z,50.67
2023-04-09T19:47:11.171Z,49.99
2023-04-09T19:49:48.066Z,49.51
2023-04-09T19:52:22.260Z,51.24
2023-04-09T19:54:55.781Z,50.04
2023-04-09T19:57:41.164Z,50.68
2023-04-09T20:00:32.655Z,51.06
2023-04-09T20:03:14.429Z,50.39
2023-04-09T20:05:54.799Z,51.87
2023-04-09T20:08:28.131Z,51.23
2023-04-09T20:11:00.136Z,52.17
2023-04-09T20:13:28.639Z,51.99
2023-04-09T20:15:57.525Z,51.25
2023-04-09T20:18:32.663Z,51.13
2023-04-09T20:21:15.483Z,52.77
2023-04-09T20:23:55.527Z,52.61
2023-04-09T20:26:26.115Z,52.47
2023-04-09T20:29:07.083Z,51.69
2023-04-09T20:31:43.822Z,52.16
2023-04-09T20:34:20.030Z,51.20
2023-04-09T20:36:59.716Z,51.05
2023-04-09T20:39:32.456Z,50.98
2023-04-09T20:42:19.022Z,50.69
2023-04-09T20:45:01.610Z,51.00
2023-04-09T20:47:43.731Z,50.41
2023-04-09T20:50:16.698Z,49.86
2023-04-09T20:52:51.286Z,49.67
2023-04-09T20:55:27.825Z,49.96
2023-04-09T20:58:06.055Z,49.76
2023-04-09T21:00:33.732Z,49.40
2023-04-09T21:03:11.145Z,49.36
2023-04-09T21:05:39.278Z,49.58
2023-04-09T21:08:16.270Z,50.29
2023-04-09T21:11:00.797Z,50.72
2023-04-09T21:13:46.518Z,50.67
2023-04-09T21:16:36.729Z,51.48
2023-04-09T21:19:25.474Z,52.41
2023-04-09T21:22:02.451Z,51.91
2023-04-09T21:24:35.016Z,51.98
2023-04-09T21:27:12.527Z,53.98
2023-04-09T21:29:43.820Z,53.57
2023-04-09T21:32:20.128Z,54.87
2023-04-09T21:34:47.398Z,55.93
2023-04-09T21:37:14.829Z,56.07
2023-04-09T21:39:42.362Z,56.57
2023-04-09T21:42:09.717Z,56.19
2023-04-09T21:44:37.181Z,54.54
2023-04-09T21:47:07.806Z,56.04
2023-04-09T21:49:39.422Z,55.26
2023-04-09T21:52:14.748Z,55.03
2023-04-09T21:54:43.741Z,55.32
2023-04-09T21:57:13.809Z,55.08
2023-04-09T21:59:42.683Z,54.32
2023-04-09T22:02:10.053Z,53.94
2023-04-09T22:04:39.831Z,53.78
2023-04-09T22:07:06.929Z,54.06
2023-04-09T22:09:34.240Z,52.85
2023-04-09T22:12:02.896Z,52.91
2023-04-09T22:14:30.889Z,53.16
2023-04-09T22:16:58.579Z,52.14
2023-04-09T22:19:26.651Z,52.27
2023-04-09T22:21:54.600Z,53.16
2023-04-09T22:24:30.444Z,52.04
2023-04-09T22:27:01.665Z,51.75
2023-04-09T22:29:29.630Z,51.70
2023-04-09T22:31:56.778Z,51.71
2023-04-09T22:34:24.171Z,50.66
2023-04-09T22:36:51.380Z,50.49
2023-04-09T22:39:18.668Z,50.41
2023-04-09T22:41:46.859Z,50.08
2023-04-09T22:44:14.367Z,50.14
2023-04-09T22:46:41.643Z,49.92
2023-04-09T22:49:09.321Z,49.86
2023-04-09T22:51:36.677Z,49.67
2023-04-09T22:54:08.347Z,49.32
2023-04-09T22:56:37.099Z,49.62
2023-04-09T22:59:04.467Z,49.75
2023-04-09T23:01:32.651Z,48.33
2023-04-09T23:04:03.078Z,47.81
2023-04-09T23:06:31.083Z,47.15
2023-04-09T23:09:01.672Z,46.52
2023-04-09T23:11:32.141Z,46.49
2023-04-09T23:14:05.838Z,46.18
2023-04-09T23:16:36.203Z,46.18
2023-04-09T23:19:06.848Z,45.89
2023-04-09T23:21:34.386Z,45.97
2023-04-09T23:24:03.708Z,45.75
2023-04-09T23:26:31.276Z,46.07
2023-04-09T23:29:00.382Z,46.05
2023-04-09T23:31:27.886Z,45.68
2023-04-09T23:33:55.364Z,45.76
2023-04-09T23:36:24.570Z,45.74
2023-04-09T23:38:51.853Z,45.52
2023-04-09T23:41:19.337Z,45.64
2023-04-09T23:43:47.069Z,45.59
2023-04-09T23:46:14.284Z,45.98
2023-04-09T23:48:41.542Z,45.84
2023-04-09T23:51:08.947Z,45.64
2023-04-09T23:53:40.579Z,45.76
2023-04-09T23:56:08.193Z,45.56
2023-04-09T23:58:38.070Z,45.44
